Pagrindinis puslapis
METAR-TAF:

METAR-TAF

Oro uostai :

Berlevåg, Norvegija

platuma: 70-52N, ilguma: 029-02E, Aukštis: 1 m

Dabartinis oras

Ataskaita buvo paskelbta 31 minutes, ne 04:20 UTC
Vėjas 9 kt iš Vakarų
Temperatūra 1°C
Drėgmė 86%
Slėgis 1026 hPa
Matomumas 10 km arba daugiau

METAR: ENBV 220420Z AUTO 26009KT 9999 OVC059/// 01/M01 Q1026

Laikas: 06:51 (04:51 UTC)

Prognozė

Ataskaita buvo paskelbta 1 valandą ir 0 minutes, ne 03:51 UTC
Prognozė galioja nuo 22 metu 03 UTC su 22 metu 12 UTC
Vėjas 9 kt iš Šiaurės/Šiaurės Vakarų
Matomumas 10 km arba daugiau
Mažai debesys ne aukštis 1500 ft
Su prošvaistėmis ne aukštis 3500 ft
sniegas
Laikinai
nuo 22 metu 03 UTC su 22 metu 08 UTC
Matomumas: 2000 m
ne aukštis 1200 ft
sniegas
Laikinai
nuo 22 metu 03 UTC su 22 metu 10 UTC
Išsisklaidę debesys ne aukštis 2000 ft, Liūtiniai kamuoliniai debesys.

TAF: ENBV 220351Z 2203/2212 33009KT 9999 -SHSN FEW015 BKN035 TEMPO 2203/2208 2000 SHSN VV012 TEMPO 2203/2210 SCT020CB

Orai ataskaitas ir orų prognozės (METAR, TAF).

turimą stotys yra geltonos ir raudonos taškus žemėlapyje.

Perkelti pele per norėdami pamatyti stoties vardą.

Tada spustelėkite, norėdami matyti oro stebėjimo ir prognozės.

Norėdami pakeisti žemėlapį: spustelėkite ant žalios mygtukų su juodo kryžiaus žemyn,; žalią mygtuką su brūkšneliu, jei norite nutolinti; arba žalių rodyklių gretimoms žemėlapius.


METAR-TAF: